Time;durP1;ratioP1;P1;durP2;ratioP2;P2;SDS_P1;SDS_P2;PMS_P1;PMS_P2;Temp;Humidity;BMP_temperature;BMP_pressure;BME280_temperature;BME280_humidity;BME280_pressure;Samples;Min_cycle;Max_cycle;Signal;HPM_P1;HPM_P2
2022/10/19 00:01:53;;;;;;;1.10;1.00;;;;;;;10.50;72.06;103022.16;5032613;28;20040;-77
2022/10/19 00:04:19;;;;;;;1.13;1.05;;;;;;;10.48;73.44;103024.78;5035854;28;20040;-76
2022/10/19 00:06:46;;;;;;;0.10;0.10;;;;;;;10.48;72.86;103023.88;5033442;28;20037;-76
2022/10/19 00:09:15;;;;;;;0.10;0.10;;;;;;;10.46;72.59;103023.88;5031664;28;20076;-76
2022/10/19 00:11:43;;;;;;;0.10;0.10;;;;;;;10.46;73.08;103017.69;5028267;28;20029;-76
2022/10/19 00:14:14;;;;;;;0.00;0.00;;;;;;;10.47;73.13;103014.19;5033844;28;20052;-76
2022/10/19 00:16:44;;;;;;;0.10;0.10;;;;;;;10.48;72.81;103019.50;5031259;28;20033;-76
2022/10/19 00:19:16;;;;;;;0.10;0.10;;;;;;;10.48;73.72;103021.25;5032008;28;20028;-76
2022/10/19 00:21:42;;;;;;;0.10;0.10;;;;;;;10.45;73.22;103016.78;5033766;28;20021;-76
2022/10/19 00:24:08;;;;;;;0.00;0.00;;;;;;;10.43;72.68;103013.25;5033355;28;20041;-77
2022/10/19 00:26:35;;;;;;;0.10;0.10;;;;;;;10.46;73.11;103007.97;5027630;28;20022;-76
2022/10/19 00:29:02;;;;;;;0.10;0.10;;;;;;;10.49;72.79;103015.97;5030687;28;20080;-75
2022/10/19 00:31:28;;;;;;;0.10;0.10;;;;;;;10.50;72.86;103019.50;5030819;28;20041;-76
2022/10/19 00:33:56;;;;;;;0.10;0.10;;;;;;;10.50;72.70;103017.78;5031828;28;20017;-76
2022/10/19 00:36:29;;;;;;;0.10;0.10;;;;;;;10.53;73.30;103024.88;5032004;28;20492;-76
2022/10/19 00:38:56;;;;;;;0.10;0.10;;;;;;;10.51;73.12;103027.47;5029627;28;20043;-76
2022/10/19 00:41:24;;;;;;;0.10;0.10;;;;;;;10.52;72.96;103025.75;5031959;28;20405;-76
2022/10/19 00:44:14;;;;;;;0.40;0.40;;;;;;;10.53;72.88;103019.56;5032043;28;20459;-76
2022/10/19 00:46:44;;;;;;;1.08;1.08;;;;;;;10.53;73.05;103022.22;5030197;28;20504;-76
2022/10/19 00:49:22;;;;;;;0.00;0.00;;;;;;;10.57;72.88;103034.66;5031404;28;20025;-76
2022/10/19 00:51:52;;;;;;;0.10;0.10;;;;;;;10.52;72.73;103031.03;5030209;28;20519;-75
2022/10/19 00:54:18;;;;;;;0.10;0.10;;;;;;;10.50;73.00;103028.38;5031066;28;20032;-76
2022/10/19 00:56:48;;;;;;;0.10;0.10;;;;;;;10.50;72.65;103030.13;5031568;28;20079;-76
2022/10/19 00:59:17;;;;;;;0.10;0.10;;;;;;;10.50;72.45;103025.72;5032066;28;20111;-76
2022/10/19 01:01:45;;;;;;;0.10;0.10;;;;;;;10.49;72.52;103028.31;5029675;28;20021;-76
2022/10/19 01:04:12;;;;;;;0.75;0.75;;;;;;;10.48;72.49;103032.75;5030005;28;20041;-76
2022/10/19 01:06:40;;;;;;;0.10;0.10;;;;;;;10.48;72.75;103021.25;5031376;28;20026;-76
2022/10/19 01:09:07;;;;;;;0.10;0.10;;;;;;;10.50;73.19;103025.72;5030949;28;20047;-76
2022/10/19 01:17:30;;;;;;;0.10;0.10;;;;;;;10.59;73.02;103011.72;5083733;27;20186;-76
2022/10/19 01:23:29;;;;;;;0.10;0.10;;;;;;;10.60;72.84;103020.53;5092000;27;20158;-75
2022/10/19 01:28:58;;;;;;;0.10;0.10;;;;;;;10.58;72.47;103011.66;5109486;27;784125;-75
2022/10/19 01:39:25;;;;;;;0.10;0.10;;;;;;;10.64;72.93;103002.06;5106830;27;20243;-77
2022/10/19 01:42:31;;;;;;;0.10;0.10;;;;;;;10.65;72.98;103002.94;5084721;28;20170;-76
2022/10/19 01:45:10;;;;;;;0.10;0.10;;;;;;;10.60;72.83;102996.69;5071274;28;20118;-76
2022/10/19 01:47:44;;;;;;;0.73;0.73;;;;;;;10.56;72.96;102993.09;5067742;28;20020;-77
2022/10/19 01:50:24;;;;;;;0.10;0.10;;;;;;;10.56;72.58;102993.09;5069523;28;20036;-77
2022/10/19 01:52:52;;;;;;;0.10;0.10;;;;;;;10.51;72.49;103000.09;5066572;28;20028;-75
2022/10/19 01:55:20;;;;;;;0.10;0.10;;;;;;;10.48;72.67;102994.72;5069635;28;20028;-76
2022/10/19 01:57:51;;;;;;;0.10;0.10;;;;;;;10.45;72.43;102994.69;5067070;28;20104;-76
2022/10/19 02:00:21;;;;;;;0.10;0.10;;;;;;;10.40;72.23;102991.97;5066270;28;20046;-76
2022/10/19 02:02:49;;;;;;;0.10;0.10;;;;;;;10.37;72.14;102989.28;5068195;28;20420;-76
2022/10/19 02:05:18;;;;;;;0.10;0.10;;;;;;;10.35;72.17;102983.94;5068109;28;20037;-76
2022/10/19 02:07:48;;;;;;;0.10;0.10;;;;;;;10.35;72.05;102991.91;5069826;28;20024;-76
2022/10/19 02:10:14;;;;;;;0.10;0.10;;;;;;;10.31;72.19;102992.69;5069640;28;20086;-76
2022/10/19 02:12:41;;;;;;;0.10;0.10;;;;;;;10.29;72.06;102998.84;5065954;28;20029;-75
2022/10/19 02:15:13;;;;;;;0.10;0.10;;;;;;;10.30;72.26;103001.50;5069413;28;20117;-76
2022/10/19 02:17:45;;;;;;;0.10;0.10;;;;;;;10.25;72.18;102987.28;5070192;28;20391;-76
2022/10/19 02:20:13;;;;;;;0.10;0.10;;;;;;;10.18;72.13;103001.31;5071888;28;20040;-76
2022/10/19 02:22:40;;;;;;;0.10;0.10;;;;;;;10.12;72.41;102996.81;5068081;28;20033;-76
2022/10/19 02:25:07;;;;;;;1.30;0.73;;;;;;;10.10;72.11;102980.00;5067956;28;20462;-76
2022/10/19 02:27:34;;;;;;;0.10;0.10;;;;;;;10.06;72.23;102974.66;5067986;28;20082;-76
2022/10/19 02:30:00;;;;;;;0.10;0.10;;;;;;;10.03;72.67;102973.72;5068242;28;20500;-76
2022/10/19 02:32:27;;;;;;;0.10;0.10;;;;;;;10.00;72.79;102981.59;5064763;28;20439;-76
2022/10/19 02:34:54;;;;;;;0.10;0.10;;;;;;;9.98;72.91;102978.03;5069595;28;20111;-76
2022/10/19 02:37:20;;;;;;;0.10;0.10;;;;;;;9.95;72.87;102966.50;5069960;28;20039;-76
2022/10/19 02:39:46;;;;;;;0.10;0.10;;;;;;;9.95;72.03;102971.81;5067331;28;20037;-76
2022/10/19 02:42:19;;;;;;;0.10;0.10;;;;;;;9.93;72.66;102968.22;5067555;28;20033;-76
2022/10/19 02:44:52;;;;;;;0.08;0.08;;;;;;;9.92;72.74;102975.28;5069161;28;20058;-76
2022/10/19 02:47:24;;;;;;;0.10;0.10;;;;;;;9.87;72.95;102971.69;5070133;28;20078;-76
2022/10/19 02:49:51;;;;;;;0.10;0.10;;;;;;;9.83;72.54;102970.72;5065268;28;20029;-76
2022/10/19 02:52:18;;;;;;;0.10;0.10;;;;;;;9.80;72.91;102967.13;5059407;28;20039;-76
2022/10/19 02:54:45;;;;;;;0.00;0.00;;;;;;;9.77;72.60;102962.69;5054010;28;20037;-76
2022/10/19 02:57:21;;;;;;;0.10;0.10;;;;;;;9.81;72.03;102966.28;5053489;28;20024;-76
2022/10/19 02:59:47;;;;;;;0.65;0.65;;;;;;;9.74;72.36;102961.75;5054135;28;20067;-77
2022/10/19 03:02:15;;;;;;;0.10;0.10;;;;;;;9.74;71.99;102961.75;5062290;28;20113;-76
2022/10/19 03:04:43;;;;;;;0.10;0.10;;;;;;;9.74;72.81;102957.31;5064587;28;20512;-76
2022/10/19 03:07:10;;;;;;;0.10;0.10;;;;;;;9.74;72.40;102952.03;5053312;28;20025;-76
2022/10/19 03:09:36;;;;;;;0.10;0.10;;;;;;;9.74;72.42;102946.72;5053350;28;20021;-76
2022/10/19 03:12:02;;;;;;;0.50;0.50;;;;;;;9.73;72.92;102954.66;5053295;28;20555;-76
2022/10/19 03:14:28;;;;;;;0.10;0.10;;;;;;;9.71;72.93;102950.22;5055299;28;20492;-76
2022/10/19 03:16:54;;;;;;;0.10;0.10;;;;;;;9.70;72.58;102952.84;5072248;28;20029;-76
2022/10/19 03:19:21;;;;;;;0.10;0.10;;;;;;;9.65;72.32;102950.09;5072777;28;20064;-76
2022/10/19 03:21:47;;;;;;;0.20;0.20;;;;;;;9.61;72.48;102950.03;5073194;28;20451;-76
2022/10/19 03:24:13;;;;;;;0.10;0.10;;;;;;;9.60;73.16;102954.44;5072970;28;20085;-76
2022/10/19 03:26:39;;;;;;;0.10;0.10;;;;;;;9.60;72.54;102950.91;5072913;28;20168;-76
2022/10/19 03:29:05;;;;;;;0.10;0.10;;;;;;;9.58;72.01;102956.16;5071180;28;20402;-76
2022/10/19 03:31:31;;;;;;;0.10;0.10;;;;;;;9.55;72.27;102951.69;5072912;28;20047;-76
2022/10/19 03:33:57;;;;;;;0.10;0.10;;;;;;;9.53;72.53;102952.53;5073240;28;20484;-76
2022/10/19 03:36:27;;;;;;;0.10;0.10;;;;;;;9.51;72.42;102951.63;5072706;28;20086;-76
2022/10/19 03:38:55;;;;;;;0.10;0.10;;;;;;;9.49;72.51;102948.94;5072435;28;20047;-76
2022/10/19 03:41:24;;;;;;;0.10;0.10;;;;;;;9.49;73.05;102950.72;5072881;28;20097;-76
2022/10/19 03:43:50;;;;;;;0.10;0.10;;;;;;;9.50;73.12;102949.84;5069923;28;20063;-76
2022/10/19 03:46:17;;;;;;;0.10;0.10;;;;;;;9.50;72.55;102948.06;5062011;28;20568;-75
2022/10/19 03:48:43;;;;;;;0.10;0.10;;;;;;;9.50;72.86;102947.19;5052138;28;20121;-76
2022/10/19 03:51:14;;;;;;;0.10;0.10;;;;;;;9.51;72.85;102949.00;5054072;28;20120;-76
2022/10/19 03:53:41;;;;;;;0.10;0.10;;;;;;;9.49;72.96;102946.28;5054742;28;20116;-75
2022/10/19 03:56:12;;;;;;;0.10;0.10;;;;;;;9.52;73.06;102950.75;5059235;28;20074;-75
2022/10/19 03:58:39;;;;;;;0.10;0.10;;;;;;;9.50;73.01;102944.56;5054166;28;20103;-75
2022/10/19 04:01:10;;;;;;;0.10;0.10;;;;;;;9.49;73.19;102940.13;5055613;28;20515;-76
2022/10/19 04:03:36;;;;;;;0.10;0.10;;;;;;;9.43;72.30;102940.88;5055232;28;20036;-76
2022/10/19 04:06:05;;;;;;;0.10;0.10;;;;;;;9.38;72.47;102940.81;5053532;28;20052;-75
2022/10/19 04:08:31;;;;;;;0.10;0.10;;;;;;;9.36;72.57;102949.59;5054748;28;20017;-74
2022/10/19 04:11:03;;;;;;;0.20;0.20;;;;;;;9.36;72.12;102944.31;5051567;28;20029;-75
2022/10/19 04:13:30;;;;;;;0.10;0.10;;;;;;;9.31;72.02;102938.00;5054434;28;20057;-75
2022/10/19 04:15:56;;;;;;;0.10;0.10;;;;;;;9.27;72.58;102942.38;5054713;28;20111;-76
2022/10/19 04:18:22;;;;;;;0.10;0.10;;;;;;;9.25;71.91;102943.22;5052349;28;20071;-76
2022/10/19 04:20:54;;;;;;;0.10;0.10;;;;;;;9.19;71.84;102942.19;5051188;28;20089;-76
2022/10/19 04:23:20;;;;;;;0.10;0.10;;;;;;;9.15;72.30;102934.19;5054380;28;20024;-75
2022/10/19 04:25:46;;;;;;;0.10;0.10;;;;;;;9.11;72.19;102942.91;5051753;28;20083;-75
2022/10/19 04:28:12;;;;;;;0.10;0.10;;;;;;;9.05;71.72;102934.00;5052600;28;20038;-75
2022/10/19 04:30:38;;;;;;;0.10;0.10;;;;;;;9.02;71.90;102939.25;5052917;28;20059;-75
2022/10/19 04:33:04;;;;;;;0.10;0.10;;;;;;;9.02;72.37;102936.59;5052203;28;20025;-75
2022/10/19 04:35:30;;;;;;;0.10;0.10;;;;;;;9.03;72.54;102941.03;5051138;28;20029;-75
2022/10/19 04:37:57;;;;;;;0.10;0.10;;;;;;;9.04;72.10;102932.22;5051928;28;20039;-77
2022/10/19 04:40:23;;;;;;;0.15;0.15;;;;;;;9.05;72.46;102928.72;5050675;28;20045;-76
2022/10/19 04:42:49;;;;;;;0.10;0.10;;;;;;;9.03;71.81;102927.81;5052217;28;20456;-76
2022/10/19 04:45:15;;;;;;;0.10;0.10;;;;;;;9.01;71.72;102932.16;5056521;28;20519;-76
2022/10/19 04:47:41;;;;;;;0.10;0.10;;;;;;;9.01;71.85;102936.53;5050908;28;20020;-76
2022/10/19 04:50:07;;;;;;;0.28;0.28;;;;;;;8.99;72.23;102936.53;5051922;28;20449;-76
2022/10/19 04:52:34;;;;;;;0.10;0.10;;;;;;;8.99;72.35;102939.16;5051197;28;20090;-76
2022/10/19 04:55:00;;;;;;;0.10;0.10;;;;;;;8.97;71.88;102940.00;5051204;28;20023;-76
2022/10/19 04:57:26;;;;;;;0.10;0.10;;;;;;;8.96;71.69;102941.75;5050681;28;20024;-76
2022/10/19 04:59:52;;;;;;;0.10;0.10;;;;;;;8.95;72.10;102937.34;5054656;28;20033;-76
2022/10/19 05:02:18;;;;;;;0.10;0.10;;;;;;;8.94;71.88;102934.66;5053473;28;20041;-76
2022/10/19 05:04:47;;;;;;;0.10;0.10;;;;;;;8.92;72.08;102941.66;5053467;28;20033;-76
2022/10/19 05:07:13;;;;;;;0.10;0.10;;;;;;;8.89;71.74;102945.13;5053779;28;20496;-76
2022/10/19 05:09:39;;;;;;;0.10;0.10;;;;;;;8.89;72.11;102942.50;5054980;28;20043;-75
2022/10/19 05:12:05;;;;;;;0.10;0.10;;;;;;;8.89;72.36;102948.66;5054458;28;20021;-75
2022/10/19 05:14:33;;;;;;;0.10;0.10;;;;;;;8.89;72.76;102947.78;5054788;28;20484;-76
2022/10/19 05:16:59;;;;;;;0.10;0.10;;;;;;;8.90;72.71;102936.34;5051015;28;20218;-76
2022/10/19 05:19:25;;;;;;;0.10;0.10;;;;;;;8.93;72.97;102932.88;5050028;28;20795;-76
2022/10/19 05:21:51;;;;;;;0.10;0.10;;;;;;;8.92;72.91;102931.97;5050434;28;20064;-76
2022/10/19 05:24:17;;;;;;;0.10;0.10;;;;;;;8.91;72.50;102940.78;5051858;28;20093;-76
2022/10/19 05:26:43;;;;;;;0.10;0.10;;;;;;;8.89;72.28;102930.16;5051719;28;20040;-76
2022/10/19 05:29:12;;;;;;;0.10;0.10;;;;;;;8.89;72.33;102927.50;5054657;28;20025;-76
2022/10/19 05:31:38;;;;;;;0.10;0.10;;;;;;;8.89;73.42;102924.00;5053066;28;20074;-76
2022/10/19 05:34:04;;;;;;;0.10;0.10;;;;;;;8.88;72.96;102920.47;5049639;28;20052;-76
2022/10/19 05:36:33;;;;;;;0.10;0.10;;;;;;;8.88;72.09;102916.91;5056684;28;20504;-76
2022/10/19 05:39:03;;;;;;;0.10;0.10;;;;;;;8.87;72.33;102925.69;5054600;28;20039;-76
2022/10/19 05:41:29;;;;;;;0.10;0.10;;;;;;;8.84;72.02;102923.00;5060085;28;20457;-76
2022/10/19 05:43:58;;;;;;;0.08;0.08;;;;;;;8.80;72.21;102927.34;5052963;28;20108;-76
2022/10/19 05:46:25;;;;;;;0.10;0.10;;;;;;;8.78;72.55;102933.44;5052261;28;20036;-76
2022/10/19 05:48:51;;;;;;;0.10;0.10;;;;;;;8.79;71.45;102935.25;5054661;28;20078;-76
2022/10/19 05:51:22;;;;;;;0.10;0.10;;;;;;;8.75;71.94;102931.63;5052441;28;20044;-76
2022/10/19 05:53:48;;;;;;;0.32;0.32;;;;;;;8.68;72.22;102935.88;5055204;28;20033;-76
2022/10/19 05:56:18;;;;;;;0.10;0.10;;;;;;;8.67;73.08;102923.56;5052801;28;20033;-76
2022/10/19 05:58:44;;;;;;;0.10;0.10;;;;;;;8.69;72.16;102923.56;5056816;28;20029;-76
2022/10/19 06:01:11;;;;;;;0.10;0.10;;;;;;;8.70;72.73;102918.31;5055651;28;20037;-75
2022/10/19 06:03:37;;;;;;;0.10;0.10;;;;;;;8.71;73.03;102912.19;5056801;28;20480;-76
2022/10/19 06:06:05;;;;;;;0.20;0.20;;;;;;;8.70;71.66;102910.38;5059663;28;20558;-75
2022/10/19 06:08:31;;;;;;;0.10;0.10;;;;;;;8.70;72.85;102913.03;5057994;28;20277;-75
2022/10/19 06:11:08;;;;;;;0.10;0.10;;;;;;;8.72;73.17;102906.03;5052446;28;20461;-76
2022/10/19 06:13:35;;;;;;;0.10;0.10;;;;;;;8.68;72.73;102908.56;5053543;28;20047;-76
2022/10/19 06:16:01;;;;;;;0.10;0.10;;;;;;;8.67;73.37;102907.69;5053653;28;20037;-76
2022/10/19 06:18:27;;;;;;;0.10;0.10;;;;;;;8.66;72.14;102908.53;5057256;28;20037;-76
2022/10/19 06:20:53;;;;;;;0.10;0.10;;;;;;;8.65;72.51;102912.03;5052176;28;20503;-76
2022/10/19 06:23:19;;;;;;;0.10;0.10;;;;;;;8.66;73.06;102903.25;5051000;28;20028;-76
2022/10/19 06:25:45;;;;;;;0.10;0.10;;;;;;;8.65;72.90;102898.84;5054893;28;20571;-76
2022/10/19 06:28:12;;;;;;;0.10;0.10;;;;;;;8.69;73.58;102907.72;5054430;28;20116;-76
2022/10/19 06:30:39;;;;;;;0.10;0.10;;;;;;;8.70;72.57;102904.22;5054940;28;20058;-75
2022/10/19 06:33:05;;;;;;;0.90;0.90;;;;;;;8.72;73.37;102910.41;5053192;28;20044;-76
2022/10/19 06:35:31;;;;;;;0.10;0.10;;;;;;;8.71;72.81;102909.53;5054777;28;20024;-76
2022/10/19 06:37:57;;;;;;;0.10;0.10;;;;;;;8.72;72.60;102913.06;5054141;28;20025;-76
2022/10/19 06:40:24;;;;;;;0.10;0.10;;;;;;;8.74;72.43;102904.28;5056431;28;20144;-76
2022/10/19 06:42:50;;;;;;;0.10;0.10;;;;;;;8.80;73.44;102910.56;5054617;28;20059;-76
2022/10/19 06:45:17;;;;;;;0.10;0.10;;;;;;;8.84;73.29;102907.16;5054191;28;20396;-76
2022/10/19 06:47:43;;;;;;;0.10;0.10;;;;;;;8.87;73.01;102907.19;5056904;28;20028;-77
2022/10/19 06:50:09;;;;;;;0.10;0.10;;;;;;;8.90;72.55;102904.63;5052819;28;20106;-76
2022/10/19 06:52:36;;;;;;;0.10;0.10;;;;;;;8.90;72.91;102912.56;5056205;28;20048;-76
2022/10/19 06:55:02;;;;;;;0.10;0.10;;;;;;;8.92;72.17;102915.22;5055721;28;20554;-76
2022/10/19 06:57:29;;;;;;;0.10;0.10;;;;;;;8.94;72.93;102919.69;5057821;28;20079;-76
2022/10/19 06:59:55;;;;;;;0.10;0.10;;;;;;;8.96;72.56;102917.97;5053898;28;20033;-76
2022/10/19 07:02:21;;;;;;;0.10;0.10;;;;;;;8.98;72.51;102921.50;5053220;28;20028;-77
2022/10/19 07:04:47;;;;;;;0.13;0.13;;;;;;;9.00;73.32;102914.50;5059158;28;20059;-77
2022/10/19 07:07:13;;;;;;;0.05;0.05;;;;;;;9.03;73.00;102914.59;5056546;28;20069;-77
2022/10/19 07:09:39;;;;;;;0.20;0.20;;;;;;;9.05;73.00;102914.63;5055100;28;20039;-76
2022/10/19 07:12:05;;;;;;;0.10;0.10;;;;;;;9.09;73.16;102907.63;5057837;28;20031;-77
2022/10/19 07:14:37;;;;;;;0.20;0.20;;;;;;;9.14;72.89;102900.69;5060457;28;20053;-76
2022/10/19 07:17:04;;;;;;;0.10;0.10;;;;;;;9.17;73.03;102904.28;5055448;28;20029;-76
2022/10/19 07:19:31;;;;;;;0.10;0.10;;;;;;;9.22;73.23;102904.34;5055036;28;20032;-77
2022/10/19 07:21:57;;;;;;;0.10;0.10;;;;;;;9.26;72.77;102898.25;5055933;28;20437;-76
2022/10/19 07:24:23;;;;;;;0.30;0.30;;;;;;;9.27;72.75;102897.41;5058329;28;20032;-76
2022/10/19 07:26:49;;;;;;;0.20;0.20;;;;;;;9.36;72.45;102907.28;5057975;28;20025;-77
2022/10/19 07:29:15;;;;;;;0.10;0.10;;;;;;;9.44;72.57;102913.56;5055377;28;20025;-76
2022/10/19 07:31:41;;;;;;;0.10;0.10;;;;;;;9.48;72.96;102914.50;5057180;28;20031;-76
2022/10/19 07:34:12;;;;;;;0.10;0.10;;;;;;;9.55;73.10;102916.41;5057984;28;20492;-76
2022/10/19 07:36:43;;;;;;;1.90;0.73;;;;;;;9.59;73.17;102914.72;5054295;28;20037;-76
2022/10/19 07:39:10;;;;;;;1.20;1.10;;;;;;;9.64;72.44;102919.22;5062270;28;20501;-76
2022/10/19 07:41:36;;;;;;;0.10;0.10;;;;;;;9.69;72.28;102916.66;5058297;28;20033;-77
2022/10/19 07:44:03;;;;;;;0.10;0.10;;;;;;;9.71;72.86;102917.56;5055279;28;20047;-78
2022/10/19 07:46:35;;;;;;;0.10;0.10;;;;;;;9.74;72.44;102922.03;5058402;28;20498;-76
2022/10/19 07:49:03;;;;;;;0.10;0.10;;;;;;;9.77;72.46;102925.63;5055589;28;20395;-76
2022/10/19 07:51:29;;;;;;;0.10;0.10;;;;;;;9.82;72.20;102912.44;5054350;28;20031;-77
2022/10/19 07:53:56;;;;;;;0.10;0.10;;;;;;;9.87;72.93;102918.72;5053239;28;20330;-76
2022/10/19 07:56:24;;;;;;;0.10;0.10;;;;;;;9.91;72.56;102920.53;5055865;28;20029;-76
2022/10/19 07:58:52;;;;;;;0.10;0.10;;;;;;;9.94;72.68;102910.00;5053187;28;20429;-76
2022/10/19 08:01:20;;;;;;;0.10;0.10;;;;;;;10.00;72.40;102910.09;5052355;28;20481;-76
2022/10/19 08:03:47;;;;;;;0.10;0.10;;;;;;;10.06;72.72;102900.47;5055170;28;20029;-76
2022/10/19 08:06:17;;;;;;;0.10;0.10;;;;;;;10.13;72.50;102902.31;5055942;28;20469;-76
2022/10/19 08:08:45;;;;;;;0.10;0.10;;;;;;;10.18;72.76;102895.34;5057619;28;20129;-76
2022/10/19 08:11:16;;;;;;;0.10;0.10;;;;;;;10.27;72.55;102895.50;5059200;28;20121;-77
2022/10/19 08:13:44;;;;;;;0.10;0.10;;;;;;;10.36;73.24;102900.94;5055349;28;20025;-76
2022/10/19 08:16:36;;;;;;;0.38;0.38;;;;;;;10.51;73.09;102891.44;5052187;28;20495;-76
2022/10/19 08:19:06;;;;;;;0.10;0.10;;;;;;;10.53;73.33;102897.66;5051602;28;20055;-76
2022/10/19 08:21:34;;;;;;;0.10;0.10;;;;;;;10.62;73.59;102891.56;5053444;28;20044;-77
2022/10/19 08:24:00;;;;;;;0.10;0.10;;;;;;;10.72;73.85;102893.47;5058117;28;20032;-76
2022/10/19 08:26:31;;;;;;;0.10;0.10;;;;;;;10.88;74.08;102897.19;5058246;28;20504;-76
2022/10/19 08:29:00;;;;;;;0.20;0.20;;;;;;;10.98;74.27;102895.53;5063742;28;20484;-76
2022/10/19 08:31:26;;;;;;;0.25;0.25;;;;;;;11.09;74.15;102885.03;5062373;28;20025;-76
2022/10/19 08:33:52;;;;;;;0.10;0.10;;;;;;;11.20;73.83;102880.72;5057530;28;20029;-77
2022/10/19 08:36:20;;;;;;;0.10;0.10;;;;;;;11.33;74.06;102877.31;5054071;28;20060;-77
2022/10/19 08:38:47;;;;;;;0.10;0.10;;;;;;;11.44;74.60;102863.25;5059373;28;20035;-76
2022/10/19 08:49:17;;;;;;;0.77;0.77;;;;;;;11.98;75.13;102845.13;5091410;27;20167;-75
2022/10/19 08:51:48;;;;;;;0.10;0.10;;;;;;;12.10;75.60;102838.97;5065622;28;20029;-75
2022/10/19 08:54:17;;;;;;;0.10;0.10;;;;;;;12.23;75.22;102843.47;5050941;28;20029;-74
2022/10/19 08:57:10;;;;;;;0.10;0.10;;;;;;;12.38;74.22;102839.13;5065265;28;20064;-74
2022/10/19 08:59:43;;;;;;;;;;;;;;;12.58;74.48;102834.75;5061255;28;20037;-74
2022/10/19 09:02:21;;;;;;;0.10;0.10;;;;;;;12.65;74.64;102843.66;5070644;28;20303;-74
2022/10/19 09:04:56;;;;;;;0.00;0.00;;;;;;;12.77;74.24;102848.13;5056512;28;20119;-75
2022/10/19 09:07:28;;;;;;;0.10;0.10;;;;;;;12.86;74.80;102842.84;5052886;28;20183;-74
2022/10/19 09:09:58;;;;;;;0.10;0.10;;;;;;;12.97;74.62;102845.50;5055303;28;20115;-74
2022/10/19 09:12:38;;;;;;;0.10;0.10;;;;;;;13.11;74.11;102842.91;5050971;28;20127;-75
2022/10/19 09:15:11;;;;;;;0.10;0.10;;;;;;;13.18;74.05;102836.66;5047599;28;20095;-74
2022/10/19 09:17:37;;;;;;;0.10;0.10;;;;;;;13.31;73.37;102844.66;5049804;28;20021;-74
2022/10/19 09:20:24;;;;;;;0.00;0.00;;;;;;;13.46;73.26;102833.16;5047262;28;20041;-75
2022/10/19 09:23:02;;;;;;;0.20;0.20;;;;;;;13.53;72.91;102840.28;5048104;28;20386;-75
2022/10/19 09:25:32;;;;;;;0.38;0.38;;;;;;;13.54;72.25;102834.94;5048784;28;20523;-75
2022/10/19 09:28:14;;;;;;;0.10;0.10;;;;;;;13.69;71.57;102823.38;5046720;28;20029;-74
2022/10/19 09:30:43;;;;;;;0.10;0.10;;;;;;;13.79;71.97;102826.94;5046808;28;20112;-78
2022/10/19 09:33:18;;;;;;;0.10;0.10;;;;;;;13.91;71.80;102832.22;5048754;28;20311;-78
2022/10/19 09:35:45;;;;;;;0.10;0.10;;;;;;;14.00;72.15;102843.78;5049544;28;20359;-76
2022/10/19 09:38:15;;;;;;;0.10;0.10;;;;;;;14.13;71.44;102842.88;5047410;28;20100;-76
2022/10/19 09:40:42;;;;;;;0.10;0.10;;;;;;;14.20;70.73;102846.38;5048499;28;20513;-76
2022/10/19 09:43:26;;;;;;;0.10;0.10;;;;;;;14.31;69.92;102843.69;5047081;28;20626;-76
2022/10/19 09:46:03;;;;;;;0.10;0.10;;;;;;;14.45;71.67;102847.16;5054808;28;20484;-76
2022/10/19 09:48:48;;;;;;;0.10;0.10;;;;;;;14.46;69.70;102840.94;5046724;28;20029;-77
2022/10/19 09:51:16;;;;;;;0.10;0.10;;;;;;;14.59;69.42;102840.91;5047024;28;20044;-76
2022/10/19 09:53:52;;;;;;;0.10;0.10;;;;;;;14.75;70.19;102842.63;5046952;28;20524;-76
2022/10/19 09:56:23;;;;;;;0.10;0.10;;;;;;;14.82;70.55;102832.81;5046887;28;20029;-76
2022/10/19 09:58:51;;;;;;;0.10;0.10;;;;;;;14.89;69.49;102829.19;5041039;28;20013;-76
2022/10/19 10:01:36;;;;;;;0.10;0.10;;;;;;;15.07;69.44;102830.88;5036299;28;20116;-76
2022/10/19 10:04:15;;;;;;;0.13;0.13;;;;;;;15.15;68.90;102820.13;5033713;28;20123;-77
2022/10/19 10:06:43;;;;;;;0.10;0.10;;;;;;;15.20;69.42;102808.53;5034018;28;20504;-77
2022/10/19 10:09:16;;;;;;;0.10;0.10;;;;;;;15.23;66.18;102801.38;5035980;28;20060;-76
2022/10/19 10:11:46;;;;;;;0.10;0.10;;;;;;;15.30;68.13;102800.41;5033583;28;20443;-76
2022/10/19 10:17:00;;;;;;;0.10;0.10;;;;;;;15.42;68.84;102767.38;5105396;27;20223;-76
2022/10/19 10:19:29;;;;;;;0.10;0.10;;;;;;;15.39;67.27;102762.97;5062145;28;20041;-75
2022/10/19 10:21:57;;;;;;;0.10;0.10;;;;;;;15.36;65.81;102771.00;5064934;28;20036;-76
2022/10/19 10:24:27;;;;;;;0.10;0.10;;;;;;;15.40;67.76;102762.03;5064770;28;20035;-76
2022/10/19 10:26:57;;;;;;;0.10;0.10;;;;;;;15.40;68.41;102761.16;5067344;28;20182;-76
2022/10/19 10:29:27;;;;;;;0.00;0.00;;;;;;;15.43;68.18;102761.16;5067342;28;20506;-76
2022/10/19 10:32:12;;;;;;;0.10;0.10;;;;;;;15.44;67.21;102763.81;5068706;28;20028;-77
2022/10/19 10:37:21;;;;;;;0.10;0.10;;;;;;;15.56;67.29;102756.56;5122278;27;20633;-76
2022/10/19 10:39:53;;;;;;;0.10;0.10;;;;;;;15.62;65.55;102756.50;5083948;28;20119;-76
2022/10/19 10:42:33;;;;;;;0.20;0.20;;;;;;;15.73;65.89;102756.38;5090319;28;20029;-77
2022/10/19 10:44:59;;;;;;;0.10;0.10;;;;;;;15.79;65.06;102751.84;5070082;28;20500;-76
2022/10/19 10:47:27;;;;;;;0.10;0.10;;;;;;;15.93;66.54;102740.16;5067653;28;20029;-76
2022/10/19 10:49:59;;;;;;;0.10;0.10;;;;;;;16.06;67.29;102732.84;5066287;28;20020;-76
2022/10/19 10:52:27;;;;;;;;;;;;;;;16.20;62.97;102730.91;5069889;28;20044;-76
2022/10/19 10:57:49;;;;;;;0.10;0.10;;;;;;;16.30;64.97;102712.94;5149851;27;99607;-76
2022/10/19 11:00:20;;;;;;;0.10;0.10;;;;;;;16.37;64.78;102714.59;5147325;27;20034;-74
2022/10/19 11:03:11;;;;;;;0.10;0.10;;;;;;;16.48;63.97;102701.94;5148794;27;20030;-75
2022/10/19 11:05:43;;;;;;;0.10;0.10;;;;;;;16.47;64.26;102705.53;5126391;27;20031;-76
2022/10/19 11:11:24;;;;;;;0.10;0.10;;;;;;;16.55;62.70;102691.13;5080008;27;20576;-76
2022/10/19 11:16:33;;;;;;;0.10;0.10;;;;;;;16.46;63.69;102687.72;5108463;27;20502;-76
2022/10/19 11:21:54;;;;;;;0.15;0.15;;;;;;;16.58;60.85;102677.72;5101477;27;20209;-76
2022/10/19 11:29:57;;;;;;;0.00;0.00;;;;;;;16.87;59.91;102681.72;5102173;27;20213;-76
2022/10/19 11:32:55;;;;;;;0.20;0.20;;;;;;;16.91;59.45;102673.63;5066161;28;20037;-75
2022/10/19 11:35:48;;;;;;;0.05;0.05;;;;;;;16.98;57.46;102663.69;5043865;28;20400;-76
2022/10/19 11:41:19;;;;;;;0.00;0.00;;;;;;;16.99;60.58;102641.38;5105839;27;20201;-77
2022/10/19 11:44:24;;;;;;;0.10;0.10;;;;;;;17.05;58.80;102649.28;5082546;28;20497;-77
2022/10/19 11:47:11;;;;;;;0.15;0.15;;;;;;;17.07;57.21;102643.91;5078705;28;20037;-76
2022/10/19 11:53:08;;;;;;;0.10;0.10;;;;;;;17.27;58.65;102625.66;5158106;27;83089;-76
2022/10/19 11:55:54;;;;;;;0.10;0.10;;;;;;;17.29;57.51;102620.28;5115658;28;20108;-77
2022/10/19 12:04:13;;;;;;;0.90;0.30;;;;;;;17.43;57.79;102602.13;5087567;27;20446;-75
2022/10/19 12:06:52;;;;;;;0.75;0.63;;;;;;;17.56;58.48;102593.84;5046270;28;20044;-76
2022/10/19 12:14:58;;;;;;;0.10;0.10;;;;;;;17.69;55.04;102571.19;5010116;27;20608;-76
2022/10/19 12:17:29;;;;;;;0.20;0.20;;;;;;;17.77;57.44;102571.91;4984380;28;20038;-77
2022/10/19 12:20:01;;;;;;;0.20;0.20;;;;;;;17.82;55.93;102568.22;4983685;28;20137;-77
2022/10/19 12:22:30;;;;;;;0.10;0.10;;;;;;;17.89;56.35;102562.69;4987456;28;20529;-77
2022/10/19 12:25:00;;;;;;;0.10;0.10;;;;;;;17.89;56.46;102559.13;4984917;28;20023;-77
2022/10/19 12:27:33;;;;;;;0.10;0.10;;;;;;;17.95;55.67;102564.38;4987081;28;20514;-77
2022/10/19 12:30:19;;;;;;;0.10;0.10;;;;;;;17.95;55.14;102556.34;4985182;28;20026;-77
2022/10/19 12:32:59;;;;;;;0.10;0.10;;;;;;;18.07;56.55;102550.69;4986367;28;20026;-77
2022/10/19 12:35:44;;;;;;;0.10;0.10;;;;;;;18.13;55.98;102540.72;4993164;28;20038;-77
2022/10/19 12:40:59;;;;;;;0.10;0.10;;;;;;;18.19;55.75;102532.50;5160073;27;93236;-76
2022/10/19 12:52:02;;;;;;;0.20;0.20;;;;;;;18.22;53.91;102527.09;5090061;27;20617;-77
2022/10/19 12:54:31;;;;;;;0.10;0.10;;;;;;;18.29;54.71;102525.97;5090716;28;20111;-77
2022/10/19 12:56:59;;;;;;;0.10;0.10;;;;;;;18.34;53.81;102517.81;5087731;28;20056;-77
2022/10/19 13:02:18;;;;;;;0.03;0.03;;;;;;;18.27;54.27;102514.44;5082670;27;20989;-76
2022/10/19 13:05:01;;;;;;;0.10;0.10;;;;;;;18.43;55.50;102520.28;5052944;28;20037;-76